Time;durP1;ratioP1;P1;durP2;ratioP2;P2;SDS_P1;SDS_P2;PMS_P1;PMS_P2;Temp;Humidity;BMP_temperature;BMP_pressure;BME280_temperature;BME280_humidity;BME280_pressure;Samples;Min_cycle;Max_cycle;Signal;HPM_P1;HPM_P2
2023/06/14 00:02:11;;;;;;;19.40;10.80;;;;;;;9.94;96.22;98967.36;271550;1272;22301;-85
2023/06/14 00:08:33;;;;;;;15.30;8.70;;;;;;;10.06;96.55;98972.05;272896;1278;23177;-85
2023/06/14 00:14:37;;;;;;;14.00;8.90;;;;;;;10.16;97.09;98967.20;272877;1278;22965;-85
2023/06/14 00:20:39;;;;;;;14.70;8.70;;;;;;;10.17;97.13;98962.61;272031;1272;23905;-87
2023/06/14 00:26:40;;;;;;;17.40;9.00;;;;;;;10.12;96.47;98953.61;269580;1273;23493;-85
2023/06/14 00:32:43;;;;;;;13.20;9.20;;;;;;;10.09;96.04;98955.33;268866;1273;22546;-85
2023/06/14 00:38:45;;;;;;;16.30;9.80;;;;;;;10.08;96.21;98954.27;268293;1272;23430;-84
2023/06/14 00:44:47;;;;;;;16.20;9.70;;;;;;;10.04;96.35;98949.52;269148;1269;22841;-85
2023/06/14 00:51:31;;;;;;;13.70;9.30;;;;;;;10.04;96.44;98950.14;269158;1272;22199;-85
2023/06/14 00:57:37;;;;;;;15.10;9.40;;;;;;;10.03;96.55;98942.54;271323;1272;22399;-84
2023/06/14 01:04:01;;;;;;;13.80;9.00;;;;;;;10.02;96.71;98935.81;272258;1273;22395;-83
2023/06/14 01:11:05;;;;;;;14.90;9.30;;;;;;;10.08;96.88;98932.62;272353;1272;22385;-85
2023/06/14 01:17:31;;;;;;;12.70;8.30;;;;;;;10.13;96.98;98932.45;272666;1272;22211;-84
2023/06/14 01:23:33;;;;;;;11.80;8.20;;;;;;;10.14;97.02;98931.84;270880;1274;22562;-83
2023/06/14 01:30:16;;;;;;;14.10;8.60;;;;;;;10.14;96.74;98928.95;270562;1273;25137;-84
2023/06/14 01:37:01;;;;;;;14.20;8.90;;;;;;;10.17;97.05;98925.48;270776;1274;22383;-84
2023/06/14 01:43:03;;;;;;;16.30;9.50;;;;;;;10.16;96.98;98921.55;269146;1265;22543;-85
2023/06/14 01:49:05;;;;;;;15.30;9.10;;;;;;;10.12;97.41;98923.06;269845;1269;23498;-85
2023/06/14 01:55:09;;;;;;;14.10;8.80;;;;;;;10.13;97.71;98920.42;271943;1273;22546;-85
2023/06/14 02:01:12;;;;;;;15.90;9.70;;;;;;;10.19;98.21;98915.27;270132;1266;23775;-85
2023/06/14 02:07:55;;;;;;;18.00;10.80;;;;;;;10.25;98.56;98912.36;271455;1272;23079;-85
2023/06/14 02:14:12;;;;;;;18.10;11.10;;;;;;;10.26;99.05;98909.15;271876;1273;22237;-85
2023/06/14 02:20:14;;;;;;;19.60;10.50;;;;;;;10.27;99.34;98907.77;272481;1272;22925;-86
2023/06/14 02:26:16;;;;;;;19.70;11.50;;;;;;;10.27;99.63;98910.42;271161;1273;22559;-85
2023/06/14 02:32:17;;;;;;;19.60;11.60;;;;;;;10.33;100.00;98913.99;271251;1274;22472;-85
2023/06/14 02:38:28;;;;;;;23.50;13.40;;;;;;;10.38;100.00;98917.27;272442;1275;22645;-85
2023/06/14 02:44:30;;;;;;;18.90;12.10;;;;;;;10.43;100.00;98916.23;270457;1274;24096;-85
2023/06/14 02:50:32;;;;;;;20.30;12.10;;;;;;;10.48;100.00;98910.80;270498;1273;22575;-85
2023/06/14 02:56:34;;;;;;;16.00;11.00;;;;;;;10.51;100.00;98907.15;271124;1273;23437;-85
2023/06/14 03:02:36;;;;;;;18.50;10.30;;;;;;;10.57;100.00;98913.48;272360;1273;22422;-85
2023/06/14 03:09:18;;;;;;;16.50;10.50;;;;;;;10.63;100.00;98911.48;271620;1271;22413;-85
2023/06/14 03:15:24;;;;;;;27.10;13.00;;;;;;;10.68;100.00;98911.61;272327;1273;23797;-84
2023/06/14 03:21:26;;;;;;;31.90;14.10;;;;;;;10.63;100.00;98917.13;272151;1275;23505;-85
2023/06/14 03:27:29;;;;;;;28.70;13.50;;;;;;;10.61;100.00;98916.48;269516;1273;22573;-84
2023/06/14 03:33:55;;;;;;;29.40;14.60;;;;;;;10.61;100.00;98918.76;271847;1267;22334;-84
2023/06/14 03:40:00;;;;;;;28.70;13.60;;;;;;;10.60;100.00;98921.95;272881;1278;22203;-85
2023/06/14 03:46:02;;;;;;;31.10;13.40;;;;;;;10.61;100.00;98915.70;272437;1272;22194;-83
2023/06/14 03:52:05;;;;;;;34.70;13.80;;;;;;;10.65;100.00;98917.38;272979;1263;22425;-83
2023/06/14 03:58:08;;;;;;;37.70;14.50;;;;;;;10.67;100.00;98920.05;271077;1274;22390;-84
2023/06/14 04:04:11;;;;;;;34.90;15.50;;;;;;;10.73;100.00;98922.77;272247;1275;22538;-84
2023/06/14 04:10:20;;;;;;;39.30;16.20;;;;;;;10.77;100.00;98924.46;272713;1264;22161;-84
2023/06/14 04:16:42;;;;;;;37.50;16.00;;;;;;;10.72;100.00;98930.04;272547;1273;22977;-83
2023/06/14 04:23:18;;;;;;;45.50;16.80;;;;;;;10.73;100.00;98935.83;272376;1274;22165;-84
2023/06/14 04:29:26;;;;;;;42.40;17.30;;;;;;;10.78;100.00;98941.28;272563;1273;22230;-85
2023/06/14 04:35:37;;;;;;;40.00;16.40;;;;;;;10.77;100.00;98942.30;272037;1263;23721;-84
2023/06/14 04:41:39;;;;;;;42.80;17.30;;;;;;;10.78;100.00;98945.04;272390;1274;23985;-85
2023/06/14 04:47:43;;;;;;;35.70;16.80;;;;;;;10.79;100.00;98944.59;271961;1273;149155;-84
2023/06/14 04:53:45;;;;;;;32.80;16.10;;;;;;;10.79;100.00;98941.53;271718;1273;23471;-85
2023/06/14 04:59:51;;;;;;;39.40;17.10;;;;;;;10.82;100.00;98938.20;271423;1273;22563;-84
2023/06/14 05:05:53;;;;;;;38.40;17.00;;;;;;;10.85;100.00;98937.75;272233;1273;22266;-84
2023/06/14 05:11:55;;;;;;;43.60;19.30;;;;;;;10.88;100.00;98939.10;270037;1273;22558;-85
2023/06/14 05:18:18;;;;;;;37.00;16.80;;;;;;;10.93;100.00;98943.23;269236;1273;22625;-83
2023/06/14 05:24:20;;;;;;;37.10;16.70;;;;;;;10.98;100.00;98941.70;269235;1271;22989;-85
2023/06/14 05:30:22;;;;;;;48.90;20.90;;;;;;;11.06;100.00;98939.11;268596;1273;22544;-85
2023/06/14 05:37:04;;;;;;;38.50;19.80;;;;;;;11.13;100.00;98942.05;268914;1273;22769;-84
2023/06/14 05:43:26;;;;;;;39.30;19.80;;;;;;;11.19;100.00;98942.11;268964;1264;24358;-85
2023/06/14 05:49:27;;;;;;;36.40;19.60;;;;;;;11.26;100.00;98942.77;270713;1273;23874;-84
2023/06/14 05:55:29;;;;;;;41.60;20.80;;;;;;;11.33;100.00;98942.14;269750;1273;23921;-84
2023/06/14 06:01:33;;;;;;;44.40;20.10;;;;;;;11.41;100.00;98947.52;269666;1273;22456;-85
2023/06/14 06:07:56;;;;;;;49.10;21.00;;;;;;;11.52;100.00;98947.98;271895;1273;23412;-84
2023/06/14 06:13:58;;;;;;;39.00;20.50;;;;;;;11.65;100.00;98957.40;272647;1273;24096;-85
2023/06/14 06:20:09;;;;;;;31.70;17.20;;;;;;;11.76;100.00;98958.48;272387;1265;22198;-84
2023/06/14 06:26:11;;;;;;;33.60;17.90;;;;;;;11.84;100.00;98952.58;272442;1272;22364;-84
2023/06/14 06:32:33;;;;;;;35.10;17.80;;;;;;;11.91;100.00;98960.93;272810;1273;22212;-84
2023/06/14 06:38:35;;;;;;;30.30;16.60;;;;;;;12.00;100.00;98968.65;272214;1266;22685;-86
2023/06/14 06:44:59;;;;;;;29.40;16.50;;;;;;;12.02;100.00;98978.70;272378;1273;22369;-83
2023/06/14 06:51:21;;;;;;;27.10;16.30;;;;;;;12.04;100.00;98985.14;272583;1262;22253;-84
2023/06/14 06:57:23;;;;;;;25.30;15.40;;;;;;;12.10;100.00;98992.31;272383;1272;22231;-84
2023/06/14 07:03:24;;;;;;;23.10;14.60;;;;;;;12.14;100.00;98997.26;272683;1273;22225;-84
2023/06/14 07:09:29;;;;;;;25.90;14.80;;;;;;;12.16;100.00;99001.02;272287;1273;22421;-84
2023/06/14 07:16:09;;;;;;;23.70;14.20;;;;;;;12.20;100.00;99001.20;272960;1262;22253;-85
2023/06/14 07:22:35;;;;;;;26.20;15.40;;;;;;;12.24;100.00;99005.30;272539;1272;22213;-86
2023/06/14 07:28:37;;;;;;;26.50;15.70;;;;;;;12.28;100.00;99009.23;272011;1268;22845;-85
2023/06/14 07:34:39;;;;;;;27.70;17.00;;;;;;;12.28;100.00;99011.91;272356;1273;22438;-86
2023/06/14 07:40:41;;;;;;;22.90;15.20;;;;;;;12.32;100.00;99018.27;271297;1273;22549;-85
2023/06/14 07:46:43;;;;;;;30.60;16.60;;;;;;;12.33;100.00;99026.60;270809;1266;22509;-85
2023/06/14 07:52:45;;;;;;;23.10;13.10;;;;;;;12.32;100.00;99033.27;271649;1273;22251;-86
2023/06/14 07:58:47;;;;;;;18.70;12.10;;;;;;;12.32;100.00;99029.73;270551;1273;22524;-85
2023/06/14 08:04:49;;;;;;;20.60;13.50;;;;;;;12.36;100.00;99030.06;271550;1273;22497;-86
2023/06/14 08:11:00;;;;;;;20.80;13.40;;;;;;;12.40;100.00;99027.80;272342;1272;22613;-86
2023/06/14 08:17:02;;;;;;;16.20;11.10;;;;;;;12.43;100.00;99026.80;271749;1273;23309;-86
2023/06/14 08:23:04;;;;;;;16.60;11.10;;;;;;;12.46;100.00;99024.30;270435;1268;23015;-86
2023/06/14 08:29:06;;;;;;;16.10;10.70;;;;;;;12.51;100.00;99024.88;271878;1273;22624;-86
2023/06/14 08:35:08;;;;;;;18.80;11.40;;;;;;;12.60;100.00;99025.54;269915;1264;22379;-86
2023/06/14 08:41:20;;;;;;;18.70;11.60;;;;;;;12.69;100.00;99031.92;271329;1273;24381;-86
2023/06/14 08:47:25;;;;;;;17.20;10.30;;;;;;;12.75;100.00;99040.66;270617;1261;22554;-85
2023/06/14 08:53:28;;;;;;;15.00;10.30;;;;;;;12.82;100.00;99043.02;269151;1269;22542;-86
2023/06/14 08:59:36;;;;;;;19.60;12.10;;;;;;;12.92;100.00;99043.75;269776;1273;22556;-86
2023/06/14 09:05:53;;;;;;;15.40;10.40;;;;;;;13.04;100.00;99047.42;270244;1272;22660;-86
2023/06/14 09:11:54;;;;;;;14.60;9.60;;;;;;;13.21;100.00;99052.71;269980;1268;23004;-85
2023/06/14 09:18:08;;;;;;;16.60;9.80;;;;;;;13.45;100.00;99054.55;269961;1272;22743;-84
2023/06/14 09:24:14;;;;;;;13.70;8.70;;;;;;;13.75;100.00;99047.55;270297;1273;22362;-84
2023/06/14 09:30:15;;;;;;;14.70;9.00;;;;;;;14.07;100.00;99047.41;272670;1273;22248;-85
2023/06/14 09:36:38;;;;;;;9.10;6.60;;;;;;;14.29;100.00;99047.32;270302;1273;22406;-85
2023/06/14 09:42:41;;;;;;;10.80;7.50;;;;;;;14.28;100.00;99048.64;272422;1272;22435;-85
2023/06/14 09:49:03;;;;;;;6.90;5.10;;;;;;;14.16;100.00;99047.64;264745;1257;10002106;-84
2023/06/14 09:55:25;;;;;;;5.80;4.70;;;;;;;13.95;100.00;99043.20;272384;1267;23161;-85
2023/06/14 10:01:32;;;;;;;9.80;6.50;;;;;;;13.90;100.00;99043.13;272848;1274;23767;-84
2023/06/14 10:07:50;;;;;;;7.90;5.40;;;;;;;13.91;100.00;99043.36;272669;1273;22169;-84
2023/06/14 10:13:53;;;;;;;6.60;5.00;;;;;;;13.93;100.00;99040.45;272632;1273;23099;-84
2023/06/14 10:20:19;;;;;;;4.70;3.70;;;;;;;13.94;100.00;99046.51;272328;1273;22198;-84
2023/06/14 10:26:31;;;;;;;5.30;3.70;;;;;;;13.97;100.00;99051.61;270888;1273;22213;-85
2023/06/14 10:33:06;;;;;;;6.40;5.30;;;;;;;14.06;100.00;99050.42;272671;1275;22203;-85
2023/06/14 10:39:49;;;;;;;6.70;5.20;;;;;;;14.27;100.00;99046.45;272440;1262;22220;-85
2023/06/14 10:46:21;;;;;;;7.10;4.70;;;;;;;14.55;100.00;99049.91;272890;1274;22232;-85
2023/06/14 10:53:06;;;;;;;7.00;5.60;;;;;;;14.78;100.00;99050.67;272240;1264;22266;-85
2023/06/14 10:59:28;;;;;;;6.70;4.90;;;;;;;14.93;100.00;99038.38;272541;1273;22357;-85
2023/06/14 11:05:31;;;;;;;6.70;5.70;;;;;;;15.17;100.00;99033.27;272335;1266;22384;-86
2023/06/14 11:11:34;;;;;;;7.50;5.30;;;;;;;15.69;100.00;99031.06;272204;1273;22561;-84
2023/06/14 11:17:36;;;;;;;6.90;5.10;;;;;;;16.63;100.00;99026.20;270961;1272;22897;-86
2023/06/14 11:23:39;;;;;;;7.00;5.00;;;;;;;17.19;100.00;99027.36;272172;1263;22209;-86
2023/06/14 11:29:48;;;;;;;5.80;4.30;;;;;;;17.88;100.00;99020.31;271356;1272;22556;-84
2023/06/14 11:35:52;;;;;;;5.40;3.90;;;;;;;18.64;100.00;99012.67;270496;1272;22664;-84
2023/06/14 11:41:55;;;;;;;6.50;3.60;;;;;;;19.41;98.52;99013.59;270725;1273;22557;-85
2023/06/14 11:48:18;;;;;;;3.40;3.10;;;;;;;19.88;98.68;99014.87;269731;1265;22816;-86
2023/06/14 11:54:19;;;;;;;6.90;3.60;;;;;;;19.97;96.40;99010.81;270285;1272;22406;-85
2023/06/14 12:01:02;;;;;;;9.00;3.50;;;;;;;19.79;93.91;99005.02;272475;1273;22198;-87
2023/06/14 12:07:14;;;;;;;4.30;3.90;;;;;;;19.32;93.29;99002.77;272016;1264;22224;-86
2023/06/14 12:13:40;;;;;;;5.60;4.90;;;;;;;18.83;92.80;98998.80;272746;1262;22191;-86
2023/06/14 12:19:43;;;;;;;5.40;4.60;;;;;;;18.73;92.36;98994.44;272046;1259;22972;-86
2023/06/14 12:26:19;;;;;;;5.80;4.60;;;;;;;18.86;91.79;98990.98;272369;1273;22203;-87
2023/06/14 12:32:22;;;;;;;5.90;4.10;;;;;;;18.96;90.28;98989.17;271678;1273;22718;-87
2023/06/14 12:38:40;;;;;;;4.70;4.30;;;;;;;18.98;89.28;98984.59;270114;1272;23665;-85
2023/06/14 12:44:43;;;;;;;8.10;4.90;;;;;;;18.81;88.26;98977.95;269389;1273;22581;-85
2023/06/14 12:51:05;;;;;;;6.50;4.30;;;;;;;18.44;86.75;98974.36;270534;1270;23191;-85
2023/06/14 12:57:07;;;;;;;7.10;4.20;;;;;;;18.52;86.73;98977.29;272232;1272;24528;-86
2023/06/14 13:03:11;;;;;;;6.00;4.30;;;;;;;18.36;85.78;98978.48;272702;1274;22228;-87
2023/06/14 13:09:15;;;;;;;6.90;4.10;;;;;;;18.13;85.33;98974.18;272594;1274;22191;-86
2023/06/14 13:15:17;;;;;;;4.60;3.10;;;;;;;18.27;85.18;98968.77;271207;1272;22547;-86
2023/06/14 13:21:18;;;;;;;4.30;3.40;;;;;;;18.47;83.91;98973.98;269432;1273;24199;-86
2023/06/14 13:27:20;;;;;;;5.20;3.80;;;;;;;18.41;82.96;98978.86;269443;1272;23038;-87
2023/06/14 13:33:24;;;;;;;6.00;3.90;;;;;;;18.16;82.85;98982.45;272321;1274;22445;-87
2023/06/14 13:40:28;;;;;;;6.80;4.30;;;;;;;17.94;82.43;98978.76;271690;1273;22306;-85
2023/06/14 13:46:30;;;;;;;5.60;4.20;;;;;;;17.86;82.34;98975.89;272077;1272;23044;-87
2023/06/14 13:52:50;;;;;;;6.00;3.90;;;;;;;17.97;82.44;98963.25;272252;1272;22375;-86
2023/06/14 13:59:00;;;;;;;8.00;3.40;;;;;;;17.99;81.99;98967.98;272266;1264;22435;-86
2023/06/14 14:05:33;;;;;;;4.50;3.30;;;;;;;17.95;81.22;98970.11;272380;1273;22235;-86
2023/06/14 14:11:55;;;;;;;4.40;3.30;;;;;;;17.83;80.57;98975.79;272326;1262;22315;-85
2023/06/14 14:17:57;;;;;;;5.70;3.40;;;;;;;17.78;80.60;98974.70;271813;1264;25093;-86
2023/06/14 14:23:59;;;;;;;3.50;2.90;;;;;;;17.86;80.73;98972.96;270458;1274;22545;-87
2023/06/14 14:30:23;;;;;;;5.10;2.90;;;;;;;18.00;80.23;98969.46;272151;1264;23736;-86
2023/06/14 14:36:25;;;;;;;3.60;3.10;;;;;;;18.17;80.41;98973.64;271372;1264;22550;-86
2023/06/14 14:42:33;;;;;;;3.80;3.00;;;;;;;18.64;80.40;98975.36;270499;1262;22555;-85
2023/06/14 14:48:35;;;;;;;5.50;3.60;;;;;;;18.92;79.36;98977.06;270118;1272;22374;-85
2023/06/14 14:54:37;;;;;;;6.60;3.00;;;;;;;18.86;78.22;98975.77;269868;1272;22513;-87
2023/06/14 15:00:39;;;;;;;5.60;3.00;;;;;;;18.82;77.07;98967.15;271779;1273;22455;-88
2023/06/14 15:06:41;;;;;;;5.00;3.30;;;;;;;18.55;76.63;98966.54;271108;1262;23722;-87
2023/06/14 15:12:43;;;;;;;6.80;3.20;;;;;;;18.09;76.92;98969.83;271132;1272;23628;-85
2023/06/14 15:18:44;;;;;;;5.00;3.50;;;;;;;17.79;77.02;98971.52;270671;1272;23374;-87
2023/06/14 15:25:06;;;;;;;5.50;3.30;;;;;;;17.54;77.37;98969.91;272203;1274;22194;-86
2023/06/14 15:31:08;;;;;;;3.80;2.90;;;;;;;17.55;77.90;98968.31;272222;1272;22181;-86
2023/06/14 15:37:10;;;;;;;5.10;3.20;;;;;;;17.72;77.79;98961.98;272221;1272;22225;-85
2023/06/14 15:43:32;;;;;;;5.30;3.00;;;;;;;17.75;77.13;98957.91;272191;1273;23429;-88
2023/06/14 15:49:55;;;;;;;4.50;3.20;;;;;;;17.77;77.17;98960.00;271513;1265;22687;-86
2023/06/14 15:56:02;;;;;;;6.00;3.10;;;;;;;17.82;77.06;98960.14;272457;1273;22649;-86
2023/06/14 16:02:04;;;;;;;5.80;3.10;;;;;;;17.78;77.12;98962.27;271113;1272;22576;-86
2023/06/14 16:08:07;;;;;;;5.50;3.30;;;;;;;17.64;77.06;98962.77;272451;1257;23400;-87
2023/06/14 16:14:10;;;;;;;3.70;2.80;;;;;;;17.63;77.77;98965.55;271423;1271;23289;-87
2023/06/14 16:28:05;;;;;;;7.30;2.30;;;;;;;17.57;76.90;98969.15;271900;1272;22224;-86
2023/06/14 16:34:11;;;;;;;4.50;2.40;;;;;;;17.48;76.77;98969.22;270104;1272;23547;-87
2023/06/14 16:40:28;;;;;;;4.20;2.50;;;;;;;17.38;76.96;98977.43;270974;1264;22489;-86
2023/06/14 16:46:37;;;;;;;2.70;2.40;;;;;;;17.29;77.32;98986.59;271655;1273;317304;-85
2023/06/14 16:53:19;;;;;;;4.20;3.20;;;;;;;17.21;77.47;98985.75;271864;1272;22628;-85
2023/06/14 16:59:23;;;;;;;5.10;3.50;;;;;;;17.09;77.96;98990.60;269928;1270;24202;-86
2023/06/14 17:05:35;;;;;;;;;;;;;;;;;;;;;
2023/06/14 17:12:00;;;;;;;4.40;3.20;;;;;;;17.03;78.71;98998.44;271856;1273;22221;-84
2023/06/14 17:18:21;;;;;;;5.10;3.20;;;;;;;17.01;79.09;99002.96;271289;1271;22198;-85
2023/06/14 17:24:23;;;;;;;5.00;3.30;;;;;;;17.02;79.28;99007.45;272582;1273;22428;-85
2023/06/14 17:30:25;;;;;;;7.30;3.60;;;;;;;16.98;79.57;99012.64;271029;1272;22532;-84
2023/06/14 17:36:26;;;;;;;5.90;3.40;;;;;;;16.96;79.95;99013.23;271164;1262;22198;-87
2023/06/14 17:42:28;;;;;;;6.20;3.00;;;;;;;16.94;80.31;99013.56;272431;1272;23361;-86
2023/06/14 17:48:50;;;;;;;4.20;3.10;;;;;;;16.88;80.56;99013.35;272362;1273;22190;-86
2023/06/14 17:54:52;;;;;;;4.00;2.60;;;;;;;16.81;80.91;99016.60;272414;1274;22315;-86
2023/06/14 18:00:54;;;;;;;3.60;2.80;;;;;;;16.75;80.60;99018.66;272445;1272;22269;-86
2023/06/14 18:07:16;;;;;;;4.10;3.30;;;;;;;16.60;80.76;99025.64;271813;1272;22331;-86
2023/06/14 18:14:03;;;;;;;6.60;4.20;;;;;;;16.37;81.48;99027.88;271302;1263;22565;-86
2023/06/14 18:28:23;;;;;;;4.40;3.20;;;;;;;16.00;83.02;99041.28;272377;1273;22200;-85
2023/06/14 18:34:30;;;;;;;4.40;3.70;;;;;;;15.90;83.70;99046.99;272625;1274;22355;-85
2023/06/14 18:40:33;;;;;;;6.30;3.70;;;;;;;15.83;84.23;99047.45;271491;1273;22712;-85
2023/06/14 18:46:37;;;;;;;6.30;4.30;;;;;;;15.72;84.62;99053.30;270119;1273;22321;-85
2023/06/14 18:53:00;;;;;;;5.00;3.90;;;;;;;15.59;85.22;99058.20;272740;1273;22421;-85
2023/06/14 18:59:43;;;;;;;6.10;3.60;;;;;;;15.49;85.97;99065.63;270890;1274;22269;-86
2023/06/14 19:06:06;;;;;;;6.80;4.00;;;;;;;15.32;86.44;99070.44;272145;1272;22181;-86
2023/06/14 19:12:25;;;;;;;5.40;4.20;;;;;;;15.22;86.89;99076.25;270564;1269;25255;-85
2023/06/14 19:18:27;;;;;;;5.40;4.00;;;;;;;15.08;86.87;99082.55;271682;1273;22314;-86
2023/06/14 19:24:40;;;;;;;7.90;4.60;;;;;;;14.87;87.20;99082.13;271529;1272;22564;-86
2023/06/14 19:30:45;;;;;;;6.90;4.50;;;;;;;14.80;87.83;99082.46;270581;1272;25767;-85
2023/06/14 19:36:47;;;;;;;6.20;4.30;;;;;;;14.68;88.59;99084.80;272161;1271;22632;-87
2023/06/14 19:42:49;;;;;;;7.20;5.10;;;;;;;14.50;88.98;99083.05;270321;1273;22535;-86
2023/06/14 19:48:51;;;;;;;10.40;6.60;;;;;;;14.28;89.14;99082.39;269860;1272;22279;-85
2023/06/14 19:54:52;;;;;;;9.40;5.60;;;;;;;14.06;89.65;99088.16;270375;1275;22492;-85
2023/06/14 20:00:54;;;;;;;11.70;6.50;;;;;;;13.96;90.59;99097.06;269809;1274;22577;-85
2023/06/14 20:07:36;;;;;;;10.40;6.80;;;;;;;13.94;90.98;99098.32;271231;1271;22269;-85
2023/06/14 20:13:59;;;;;;;12.30;7.30;;;;;;;13.85;91.08;99099.34;270902;1263;25366;-85
2023/06/14 20:20:01;;;;;;;10.20;7.10;;;;;;;13.69;91.35;99101.23;270077;1266;22997;-85
2023/06/14 20:26:03;;;;;;;9.40;5.30;;;;;;;13.53;91.87;99103.27;271582;1275;22547;-85
2023/06/14 20:32:07;;;;;;;7.60;5.50;;;;;;;13.32;92.18;99100.57;271201;1273;22985;-85
2023/06/14 20:38:10;;;;;;;9.40;6.30;;;;;;;13.14;92.66;99105.63;272357;1269;23255;-85
2023/06/14 20:44:12;;;;;;;10.50;6.70;;;;;;;13.01;93.07;99105.82;272364;1273;22222;-85
2023/06/14 20:50:15;;;;;;;20.20;11.20;;;;;;;12.91;93.60;99105.77;272344;1273;22354;-84
2023/06/14 20:56:40;;;;;;;29.60;15.00;;;;;;;12.77;93.80;99107.98;272467;1272;22348;-84
2023/06/14 21:03:25;;;;;;;33.30;15.80;;;;;;;12.57;94.24;99108.59;272890;1267;22250;-84
2023/06/14 21:09:27;;;;;;;26.10;13.50;;;;;;;12.44;94.70;99109.63;271122;1263;22666;-85
2023/06/14 21:15:29;;;;;;;22.30;12.10;;;;;;;12.30;94.94;99106.66;269002;1272;22394;-85
2023/06/14 21:21:31;;;;;;;24.30;13.10;;;;;;;12.22;95.39;99102.68;268819;1273;22539;-85
2023/06/14 21:27:32;;;;;;;22.60;10.50;;;;;;;12.16;95.74;99100.05;269054;1273;24231;-85
2023/06/14 21:33:54;;;;;;;15.80;9.60;;;;;;;12.02;95.47;99099.64;268655;1273;22565;-85
2023/06/14 21:39:56;;;;;;;18.10;10.60;;;;;;;11.79;95.64;99102.62;268773;1260;23720;-85
2023/06/14 21:45:58;;;;;;;17.00;10.20;;;;;;;11.67;96.34;99100.64;270942;1273;22716;-85
2023/06/14 21:52:00;;;;;;;20.30;10.30;;;;;;;11.59;96.76;99097.02;269497;1272;22531;-85
2023/06/14 21:58:02;;;;;;;14.30;9.10;;;;;;;11.49;96.99;99094.96;268730;1273;22577;-85
2023/06/14 22:04:04;;;;;;;14.50;8.30;;;;;;;11.37;96.99;99094.30;269098;1273;22658;-85
2023/06/14 22:10:06;;;;;;;13.30;8.80;;;;;;;11.24;97.20;99093.55;269858;1273;22550;-85
2023/06/14 22:16:10;;;;;;;11.10;8.30;;;;;;;11.13;97.40;99094.61;270063;1257;22532;-85
2023/06/14 22:22:30;;;;;;;13.20;8.50;;;;;;;11.04;98.03;99094.05;269153;1270;23812;-85
2023/06/14 22:28:44;;;;;;;15.60;8.60;;;;;;;10.96;98.53;99091.33;272579;1272;22377;-85
2023/06/14 22:35:26;;;;;;;12.50;8.20;;;;;;;10.91;98.58;99087.26;272760;1273;22241;-86
2023/06/14 22:42:08;;;;;;;13.00;8.00;;;;;;;10.82;98.89;99078.71;271789;1273;23524;-86
2023/06/14 22:48:43;;;;;;;10.60;7.60;;;;;;;10.77;99.26;99082.71;270674;1257;22559;-86
2023/06/14 22:54:45;;;;;;;21.90;7.80;;;;;;;10.77;99.61;99089.14;270857;1273;22560;-85
2023/06/14 23:00:47;;;;;;;11.90;9.40;;;;;;;10.68;99.26;99086.91;271361;1272;23027;-85
2023/06/14 23:06:51;;;;;;;13.80;7.50;;;;;;;10.61;99.75;99084.09;271230;1257;22953;-85
2023/06/14 23:13:28;;;;;;;9.90;7.30;;;;;;;10.55;99.86;99085.58;272664;1259;22653;-84
2023/06/14 23:19:33;;;;;;;13.10;8.60;;;;;;;10.52;99.96;99080.54;269061;1273;22557;-85
2023/06/14 23:25:35;;;;;;;15.90;8.80;;;;;;;10.44;99.91;99078.70;268909;1273;22642;-85
2023/06/14 23:31:38;;;;;;;14.10;8.10;;;;;;;10.28;99.95;99078.49;268798;1273;22562;-85
2023/06/14 23:37:41;;;;;;;12.10;9.20;;;;;;;10.27;100.00;99082.23;268924;1273;23695;-85
2023/06/14 23:44:02;;;;;;;11.80;8.20;;;;;;;10.17;100.00;99081.87;270209;1273;22271;-86
2023/06/14 23:50:03;;;;;;;11.10;7.90;;;;;;;10.16;100.00;99084.82;272082;1272;22660;-85
2023/06/14 23:56:10;;;;;;;11.00;8.30;;;;;;;10.14;100.00;99084.55;271914;1273;22338;-85
